createdAt,value
2023-01-18T00:00:46.472Z,2.30
2023-01-18T00:01:46.549Z,2.20
2023-01-18T00:02:46.435Z,2.30
2023-01-18T00:03:46.435Z,2.00
2023-01-18T00:04:46.438Z,2.00
2023-01-18T00:05:46.392Z,2.20
2023-01-18T00:06:46.413Z,1.80
2023-01-18T00:07:46.381Z,1.90
2023-01-18T00:08:46.390Z,2.50
2023-01-18T00:09:46.351Z,2.10
2023-01-18T00:10:46.387Z,2.10
2023-01-18T00:11:46.343Z,2.30
2023-01-18T00:12:46.396Z,2.00
2023-01-18T00:13:46.310Z,2.10
2023-01-18T00:14:46.330Z,1.80
2023-01-18T00:15:46.324Z,2.00
2023-01-18T00:16:46.310Z,1.90
2023-01-18T00:17:46.279Z,1.60
2023-01-18T00:18:46.311Z,2.00
2023-01-18T00:19:46.256Z,1.80
2023-01-18T00:20:46.299Z,2.10
2023-01-18T00:21:46.238Z,2.00
2023-01-18T00:22:46.254Z,2.20
2023-01-18T00:23:46.249Z,1.90
2023-01-18T00:24:46.248Z,1.80
2023-01-18T00:25:46.213Z,2.00
2023-01-18T00:26:46.203Z,1.30
2023-01-18T00:27:46.178Z,2.10
2023-01-18T00:28:46.213Z,2.20
2023-01-18T00:29:46.150Z,1.80
2023-01-18T00:30:46.164Z,1.70
2023-01-18T00:31:46.158Z,1.60
2023-01-18T00:32:46.151Z,1.90
2023-01-18T00:33:46.133Z,2.10
2023-01-18T00:34:46.126Z,2.10
2023-01-18T00:35:46.115Z,2.10
2023-01-18T00:36:46.115Z,2.20
2023-01-18T00:37:46.091Z,2.30
2023-01-18T00:38:46.090Z,2.10
2023-01-18T00:39:46.071Z,3.00
2023-01-18T00:40:46.081Z,2.40
2023-01-18T00:41:46.037Z,2.60
2023-01-18T00:42:46.046Z,2.70
2023-01-18T00:43:46.063Z,2.70
2023-01-18T00:44:46.046Z,1.90
2023-01-18T00:45:46.057Z,2.80
2023-01-18T00:46:46.021Z,2.10
2023-01-18T00:47:45.975Z,1.80
2023-01-18T00:48:46.006Z,2.10
2023-01-18T00:49:45.969Z,2.50
2023-01-18T00:50:46.032Z,1.90
2023-01-18T00:51:46.045Z,2.30
2023-01-18T00:52:45.955Z,2.30
2023-01-18T00:53:45.935Z,1.70
2023-01-18T00:54:45.939Z,2.30
2023-01-18T00:55:45.905Z,2.20
2023-01-18T00:56:45.928Z,1.90
2023-01-18T00:57:45.875Z,1.70
2023-01-18T00:58:45.888Z,1.90
2023-01-18T00:59:45.858Z,2.00
2023-01-18T01:00:45.920Z,2.30
2023-01-18T01:01:46.018Z,2.10
2023-01-18T01:02:45.884Z,2.10
2023-01-18T01:03:45.828Z,2.60
2023-01-18T01:04:45.820Z,2.10
2023-01-18T01:05:45.802Z,2.20
2023-01-18T01:06:46.403Z,2.40
2023-01-18T01:07:45.768Z,3.10
2023-01-18T01:08:45.787Z,2.40
2023-01-18T01:09:45.757Z,2.10
2023-01-18T01:10:45.775Z,2.20
2023-01-18T01:11:45.748Z,2.20
2023-01-18T01:12:45.753Z,2.40
2023-01-18T01:13:45.717Z,2.60
2023-01-18T01:14:45.727Z,2.40
2023-01-18T01:15:45.698Z,2.60
2023-01-18T01:16:45.743Z,2.20
2023-01-18T01:17:45.685Z,2.10
2023-01-18T01:18:45.704Z,2.50
2023-01-18T01:19:45.650Z,2.30
2023-01-18T01:20:45.659Z,2.20
2023-01-18T01:21:45.644Z,1.80
2023-01-18T01:22:45.660Z,2.30
2023-01-18T01:23:45.620Z,2.50
2023-01-18T01:24:45.636Z,2.40
2023-01-18T01:25:45.584Z,2.00
2023-01-18T01:26:45.635Z,2.50
2023-01-18T01:27:45.569Z,2.00
2023-01-18T01:28:45.599Z,2.00
2023-01-18T01:29:45.550Z,2.10
2023-01-18T01:30:45.625Z,1.80
2023-01-18T01:31:45.534Z,2.10
2023-01-18T01:32:45.550Z,2.40
2023-01-18T01:33:45.505Z,2.20
2023-01-18T01:34:45.540Z,2.10
2023-01-18T01:35:45.494Z,2.10
2023-01-18T01:36:45.517Z,2.60
2023-01-18T01:37:45.476Z,1.80
2023-01-18T01:38:45.500Z,2.40
2023-01-18T01:39:45.466Z,2.10
2023-01-18T01:40:45.448Z,2.00
2023-01-18T01:41:45.428Z,2.00
2023-01-18T01:42:45.433Z,1.70
2023-01-18T01:43:45.419Z,1.90
2023-01-18T01:44:45.437Z,2.10
2023-01-18T01:45:45.412Z,1.80
2023-01-18T01:46:45.397Z,1.90
2023-01-18T01:47:45.400Z,2.00
2023-01-18T01:48:45.373Z,2.00
2023-01-18T01:49:45.356Z,2.30
2023-01-18T01:50:45.365Z,1.80
2023-01-18T01:51:45.336Z,2.30
2023-01-18T01:52:45.348Z,2.10
2023-01-18T01:53:45.306Z,1.60
2023-01-18T01:54:45.336Z,2.40
2023-01-18T01:55:45.316Z,2.20
2023-01-18T01:56:45.294Z,2.40
2023-01-18T01:57:45.296Z,2.10
2023-01-18T01:58:45.273Z,2.10
2023-01-18T01:59:45.284Z,2.40
2023-01-18T02:00:45.257Z,2.10
2023-01-18T02:01:45.344Z,2.50
2023-01-18T02:02:45.313Z,2.20
2023-01-18T02:03:45.215Z,1.80
2023-01-18T02:04:45.216Z,1.90
2023-01-18T02:05:45.237Z,2.00
2023-01-18T02:06:45.178Z,2.40
2023-01-18T02:07:45.188Z,1.90
2023-01-18T02:08:45.163Z,2.10
2023-01-18T02:09:45.179Z,2.00
2023-01-18T02:10:45.145Z,2.10
2023-01-18T02:11:45.146Z,2.10
2023-01-18T02:12:45.124Z,1.90
2023-01-18T02:13:45.116Z,2.00
2023-01-18T02:14:45.090Z,2.10
2023-01-18T02:15:45.133Z,1.90
2023-01-18T02:16:45.175Z,1.90
2023-01-18T02:17:45.075Z,1.60
2023-01-18T02:18:45.066Z,1.80
2023-01-18T02:19:45.062Z,2.30
2023-01-18T02:20:45.043Z,2.20
2023-01-18T02:21:45.045Z,1.70
2023-01-18T02:22:45.017Z,2.10
2023-01-18T02:23:45.033Z,2.00
2023-01-18T02:24:44.988Z,2.30
2023-01-18T02:25:45.005Z,2.30
2023-01-18T02:26:44.975Z,2.20
2023-01-18T02:27:44.992Z,2.00
2023-01-18T02:28:44.951Z,2.60
2023-01-18T02:29:44.954Z,2.10
2023-01-18T02:30:44.992Z,1.90
2023-01-18T02:31:44.935Z,2.00
2023-01-18T02:32:44.916Z,2.10
2023-01-18T02:33:44.926Z,2.00
2023-01-18T02:34:44.883Z,2.40
2023-01-18T02:35:44.916Z,2.60
2023-01-18T02:36:44.876Z,1.80
2023-01-18T02:37:44.884Z,2.00
2023-01-18T02:38:44.859Z,1.90
2023-01-18T02:39:44.860Z,2.30
2023-01-18T02:40:44.827Z,2.10
2023-01-18T02:41:44.863Z,2.30
2023-01-18T02:42:44.817Z,1.90
2023-01-18T02:43:44.812Z,1.70
2023-01-18T02:44:44.788Z,1.90
2023-01-18T02:45:44.896Z,2.00
2023-01-18T02:46:44.767Z,2.40
2023-01-18T02:47:44.805Z,2.20
2023-01-18T02:48:44.758Z,1.60
2023-01-18T02:49:44.760Z,2.10
2023-01-18T02:50:44.727Z,2.00
2023-01-18T02:51:44.738Z,2.30
2023-01-18T02:52:44.703Z,2.20
2023-01-18T02:53:44.735Z,2.10
2023-01-18T02:54:44.685Z,1.60
2023-01-18T02:55:44.702Z,1.90
2023-01-18T02:56:44.675Z,1.90
2023-01-18T02:57:44.696Z,1.90
2023-01-18T02:58:44.654Z,2.00
2023-01-18T02:59:44.662Z,1.80
2023-01-18T03:00:44.630Z,1.80
2023-01-18T03:01:44.682Z,2.20
2023-01-18T03:02:44.618Z,1.90
2023-01-18T03:03:44.668Z,2.20
2023-01-18T03:04:44.582Z,1.90
2023-01-18T03:05:44.598Z,2.20
2023-01-18T03:06:44.571Z,2.00
2023-01-18T03:07:44.618Z,2.20
2023-01-18T03:08:44.585Z,2.00
2023-01-18T03:09:44.572Z,2.00
2023-01-18T03:10:44.574Z,1.70
2023-01-18T03:11:44.539Z,2.10
2023-01-18T03:12:44.500Z,2.30
2023-01-18T03:13:44.510Z,2.30
2023-01-18T03:14:44.531Z,1.90
2023-01-18T03:15:44.533Z,2.10
2023-01-18T03:16:44.475Z,2.50
2023-01-18T03:17:44.485Z,1.90
2023-01-18T03:18:44.436Z,2.00
2023-01-18T03:19:44.452Z,2.00
2023-01-18T03:20:44.423Z,2.20
2023-01-18T03:21:44.450Z,2.00
2023-01-18T03:22:44.398Z,2.10
2023-01-18T03:23:44.441Z,1.60
2023-01-18T03:24:44.395Z,2.10
2023-01-18T03:25:44.417Z,2.10
2023-01-18T03:26:44.415Z,2.30
2023-01-18T03:27:44.378Z,1.90
2023-01-18T03:28:44.341Z,2.10
2023-01-18T03:29:44.364Z,2.00
2023-01-18T03:30:44.333Z,1.80
2023-01-18T03:31:44.346Z,2.40
2023-01-18T03:32:44.298Z,2.00
2023-01-18T03:33:44.305Z,1.80
2023-01-18T03:34:44.305Z,2.20
2023-01-18T03:35:44.310Z,2.20
2023-01-18T03:36:44.257Z,1.80
2023-01-18T03:37:44.312Z,1.80
2023-01-18T03:38:44.247Z,1.80
2023-01-18T03:39:44.267Z,2.00
2023-01-18T03:40:44.224Z,1.80
2023-01-18T03:41:44.241Z,2.20
2023-01-18T03:42:44.206Z,2.80
2023-01-18T03:43:44.219Z,2.00
2023-01-18T03:44:44.180Z,1.90
2023-01-18T03:45:44.210Z,2.00
2023-01-18T03:46:44.186Z,1.70
2023-01-18T03:47:44.176Z,1.70
2023-01-18T03:48:44.141Z,2.00
2023-01-18T03:49:44.144Z,2.00
2023-01-18T03:50:44.128Z,2.10
2023-01-18T03:51:44.144Z,1.90
2023-01-18T03:52:44.099Z,2.30
2023-01-18T03:53:44.113Z,2.00
2023-01-18T03:54:44.084Z,2.30
2023-01-18T03:55:44.102Z,2.50
2023-01-18T03:56:44.062Z,2.20
2023-01-18T03:57:44.078Z,2.10
2023-01-18T03:58:44.057Z,2.60
2023-01-18T03:59:44.062Z,2.50
2023-01-18T04:00:44.022Z,2.10
2023-01-18T04:01:44.106Z,2.50
2023-01-18T04:02:44.044Z,2.00
2023-01-18T04:03:44.060Z,2.50
2023-01-18T04:04:43.996Z,2.20
2023-01-18T04:05:43.996Z,2.30
2023-01-18T04:06:43.984Z,2.00
2023-01-18T04:07:43.972Z,2.10
2023-01-18T04:08:43.941Z,1.90
2023-01-18T04:09:43.979Z,2.50
2023-01-18T04:10:43.924Z,2.20
2023-01-18T04:11:43.958Z,2.10
2023-01-18T04:12:43.918Z,1.90
2023-01-18T04:13:43.913Z,1.90
2023-01-18T04:14:43.890Z,1.80
2023-01-18T04:15:43.889Z,2.10
2023-01-18T04:16:43.869Z,2.00
2023-01-18T04:17:43.885Z,2.00
2023-01-18T04:18:43.840Z,2.00
2023-01-18T04:19:43.880Z,1.80
2023-01-18T04:20:43.823Z,2.10
2023-01-18T04:21:43.849Z,2.40
2023-01-18T04:22:43.799Z,2.00
2023-01-18T04:23:43.844Z,1.70
2023-01-18T04:24:43.776Z,2.30
2023-01-18T04:25:43.832Z,2.00
2023-01-18T04:26:43.761Z,1.90
2023-01-18T04:27:43.773Z,1.80
2023-01-18T04:28:43.740Z,1.80
2023-01-18T04:29:43.766Z,2.40
2023-01-18T04:30:43.719Z,2.00
2023-01-18T04:31:43.741Z,1.70
2023-01-18T04:32:43.729Z,1.90
2023-01-18T04:33:43.717Z,1.80
2023-01-18T04:34:43.725Z,1.80
2023-01-18T04:35:43.721Z,1.90
2023-01-18T04:36:43.702Z,1.60
2023-01-18T04:37:43.664Z,2.10
2023-01-18T04:38:43.648Z,2.20
2023-01-18T04:39:43.668Z,2.20
2023-01-18T04:40:43.618Z,2.10
2023-01-18T04:41:43.635Z,2.00
2023-01-18T04:42:43.606Z,1.80
2023-01-18T04:43:43.624Z,1.70
2023-01-18T04:44:43.580Z,1.80
2023-01-18T04:45:43.584Z,2.00
2023-01-18T04:46:43.588Z,2.00
2023-01-18T04:47:43.606Z,1.90
2023-01-18T04:48:43.547Z,1.80
2023-01-18T04:49:43.551Z,1.70
2023-01-18T04:50:43.526Z,1.70
2023-01-18T04:51:43.585Z,1.60
2023-01-18T04:52:43.495Z,1.80
2023-01-18T04:53:43.502Z,1.60
2023-01-18T04:54:43.479Z,1.90
2023-01-18T04:55:43.486Z,2.20
2023-01-18T04:56:43.464Z,1.90
2023-01-18T04:57:43.482Z,2.00
2023-01-18T04:58:43.434Z,1.80
2023-01-18T04:59:43.454Z,1.90
2023-01-18T05:00:43.462Z,1.80
2023-01-18T05:01:43.511Z,1.60
2023-01-18T05:02:43.419Z,1.70
2023-01-18T05:03:43.419Z,1.70
2023-01-18T05:04:43.421Z,1.70
2023-01-18T05:05:43.397Z,1.60
2023-01-18T05:06:43.360Z,1.30
2023-01-18T05:07:43.373Z,1.80
2023-01-18T05:08:43.359Z,1.80
2023-01-18T05:09:43.351Z,1.80
2023-01-18T05:10:43.320Z,1.50
2023-01-18T05:11:43.334Z,1.60
2023-01-18T05:12:43.306Z,1.50
2023-01-18T05:13:43.323Z,1.60
2023-01-18T05:14:43.280Z,2.10
2023-01-18T05:15:43.292Z,1.50
2023-01-18T05:16:43.299Z,1.90
2023-01-18T05:17:43.310Z,1.90
2023-01-18T05:18:43.245Z,2.10
2023-01-18T05:19:43.260Z,1.60
2023-01-18T05:20:43.226Z,1.80
2023-01-18T05:21:43.236Z,1.60
2023-01-18T05:22:43.197Z,1.80
2023-01-18T05:23:43.216Z,1.60
2023-01-18T05:24:43.188Z,2.10
2023-01-18T05:25:43.204Z,2.10
2023-01-18T05:26:43.182Z,2.10
2023-01-18T05:27:43.183Z,2.00
2023-01-18T05:28:43.183Z,2.00
2023-01-18T05:29:43.166Z,2.00
2023-01-18T05:30:43.129Z,1.90
2023-01-18T05:31:43.189Z,2.00
2023-01-18T05:32:43.094Z,2.10
2023-01-18T05:33:43.132Z,2.80
2023-01-18T05:34:43.103Z,2.90
2023-01-18T05:35:43.093Z,3.30
2023-01-18T05:36:43.057Z,3.10
2023-01-18T05:37:43.074Z,2.90
2023-01-18T05:38:43.037Z,2.50
2023-01-18T05:39:43.047Z,2.60
2023-01-18T05:40:43.049Z,2.50
2023-01-18T05:41:43.041Z,2.20
2023-01-18T05:42:43.010Z,2.50
2023-01-18T05:43:43.008Z,2.70
2023-01-18T05:44:42.988Z,2.70
2023-01-18T05:45:43.048Z,2.80
2023-01-18T05:46:43.006Z,1.90
2023-01-18T05:47:43.114Z,2.50
2023-01-18T05:48:42.951Z,2.60
2023-01-18T05:49:42.979Z,2.20
2023-01-18T05:50:42.922Z,2.70
2023-01-18T05:51:42.935Z,2.80
2023-01-18T05:52:42.893Z,2.40
2023-01-18T05:53:42.931Z,2.40
2023-01-18T05:54:42.881Z,2.70
2023-01-18T05:55:42.952Z,2.30
2023-01-18T05:56:42.868Z,2.20
2023-01-18T05:57:42.934Z,2.40
2023-01-18T05:58:42.839Z,2.60
2023-01-18T05:59:42.873Z,2.80
2023-01-18T06:00:42.819Z,2.20
2023-01-18T06:01:42.912Z,2.50
2023-01-18T06:02:42.800Z,2.90
2023-01-18T06:03:42.834Z,2.60
2023-01-18T06:04:42.803Z,2.90
2023-01-18T06:05:42.791Z,2.20
2023-01-18T06:06:42.770Z,2.70
2023-01-18T06:07:42.785Z,2.90
2023-01-18T06:08:42.732Z,2.50
2023-01-18T06:09:43.077Z,2.10
2023-01-18T06:10:42.757Z,2.70
2023-01-18T06:11:42.723Z,2.90
2023-01-18T06:12:42.712Z,2.20
2023-01-18T06:13:42.721Z,2.40
2023-01-18T06:14:42.693Z,2.50
2023-01-18T06:15:42.681Z,2.90
2023-01-18T06:16:42.728Z,2.40
2023-01-18T06:17:42.663Z,2.70
2023-01-18T06:18:42.655Z,2.70
2023-01-18T06:19:42.641Z,2.60
2023-01-18T06:20:42.630Z,2.90
2023-01-18T06:21:42.620Z,2.50
2023-01-18T06:22:42.631Z,2.30
2023-01-18T06:23:42.609Z,2.80
2023-01-18T06:24:42.623Z,2.20
2023-01-18T06:25:42.580Z,2.30
2023-01-18T06:26:42.579Z,2.70
2023-01-18T06:27:42.548Z,2.80
2023-01-18T06:28:42.558Z,2.80
2023-01-18T06:29:42.559Z,2.40
2023-01-18T06:30:42.545Z,2.60
2023-01-18T06:31:42.544Z,2.60
2023-01-18T06:32:42.567Z,2.60
2023-01-18T06:33:42.609Z,2.80
2023-01-18T06:34:42.505Z,2.70
2023-01-18T06:35:42.505Z,2.70
2023-01-18T06:36:42.480Z,2.10
2023-01-18T06:37:42.445Z,2.90
2023-01-18T06:38:42.511Z,2.50
2023-01-18T06:39:42.432Z,2.40
2023-01-18T06:40:42.451Z,2.30
2023-01-18T06:41:42.426Z,2.70
2023-01-18T06:42:42.425Z,2.40
2023-01-18T06:43:42.407Z,2.80
2023-01-18T06:44:42.382Z,2.90
2023-01-18T06:45:42.425Z,2.40
2023-01-18T06:46:42.344Z,2.90
2023-01-18T06:47:42.302Z,2.60
2023-01-18T06:48:42.365Z,2.50
2023-01-18T06:49:42.343Z,2.40
2023-01-18T06:50:42.343Z,3.50
2023-01-18T06:51:42.338Z,4.80
2023-01-18T06:52:42.269Z,2.80
2023-01-18T06:53:42.318Z,2.90
2023-01-18T06:54:42.335Z,2.30
2023-01-18T06:55:42.263Z,2.30
2023-01-18T06:56:42.259Z,2.30
2023-01-18T06:57:42.228Z,2.40
2023-01-18T06:58:42.217Z,2.20
2023-01-18T06:59:42.171Z,3.10
2023-01-18T07:00:42.231Z,2.60
2023-01-18T07:01:42.322Z,2.70
2023-01-18T07:02:42.204Z,2.70
2023-01-18T07:03:42.151Z,2.90
2023-01-18T07:04:42.149Z,2.80
2023-01-18T07:05:42.115Z,3.00
2023-01-18T07:06:42.160Z,3.30
2023-01-18T07:07:42.096Z,3.00
2023-01-18T07:08:42.102Z,3.30
2023-01-18T07:09:42.103Z,2.50
2023-01-18T07:10:42.123Z,2.90
2023-01-18T07:11:42.059Z,3.00
2023-01-18T07:12:42.101Z,3.20
2023-01-18T07:13:42.031Z,2.70
2023-01-18T07:14:42.057Z,3.30
2023-01-18T07:15:42.045Z,2.90
2023-01-18T07:16:42.050Z,2.80
2023-01-18T07:17:41.992Z,2.70
2023-01-18T07:18:42.019Z,2.60
2023-01-18T07:19:42.006Z,2.90
2023-01-18T07:20:41.997Z,3.00
2023-01-18T07:21:41.971Z,2.80
2023-01-18T07:22:41.998Z,3.00
2023-01-18T07:23:41.943Z,2.40
2023-01-18T07:24:41.948Z,3.30
2023-01-18T07:25:41.959Z,3.00
2023-01-18T07:26:41.953Z,3.10
2023-01-18T07:27:41.892Z,3.30
2023-01-18T07:28:41.906Z,3.00
2023-01-18T07:29:41.887Z,3.10
2023-01-18T07:30:41.908Z,3.50
2023-01-18T07:31:41.900Z,3.10
2023-01-18T07:32:41.888Z,3.00
2023-01-18T07:33:41.838Z,3.10
2023-01-18T07:34:41.852Z,3.40
2023-01-18T07:35:41.850Z,3.20
2023-01-18T07:36:41.831Z,3.30
2023-01-18T07:37:41.810Z,3.10
2023-01-18T07:38:41.796Z,2.70
2023-01-18T07:39:41.777Z,3.20
2023-01-18T07:40:41.784Z,3.80
2023-01-18T07:41:41.784Z,2.20
2023-01-18T07:42:41.789Z,3.20
2023-01-18T07:43:41.745Z,3.60
2023-01-18T07:44:41.752Z,3.80
2023-01-18T07:45:41.729Z,3.80
2023-01-18T07:46:41.723Z,3.10
2023-01-18T07:47:41.713Z,3.30
2023-01-18T07:48:41.718Z,3.20
2023-01-18T07:49:41.679Z,3.70
2023-01-18T07:50:41.690Z,3.80
2023-01-18T07:51:41.673Z,3.20
2023-01-18T07:52:41.682Z,3.80
2023-01-18T07:53:41.671Z,3.70
2023-01-18T07:54:41.665Z,3.50
2023-01-18T07:55:41.627Z,3.80
2023-01-18T07:56:41.645Z,4.10
2023-01-18T07:57:41.593Z,3.50
2023-01-18T07:58:41.641Z,4.00
2023-01-18T07:59:41.574Z,4.10
2023-01-18T08:00:41.654Z,3.80
2023-01-18T08:01:41.624Z,3.30
2023-01-18T08:02:41.633Z,3.40
2023-01-18T08:03:41.551Z,4.00
2023-01-18T08:04:41.561Z,3.80
2023-01-18T08:05:41.540Z,4.20
2023-01-18T08:06:41.572Z,3.50
2023-01-18T08:07:41.500Z,3.70
2023-01-18T08:08:41.506Z,3.70
2023-01-18T08:09:41.509Z,4.10
2023-01-18T08:10:41.482Z,3.50
2023-01-18T08:11:41.452Z,3.50
2023-01-18T08:12:41.470Z,3.90
2023-01-18T08:13:41.436Z,3.60
2023-01-18T08:14:41.455Z,4.10
2023-01-18T08:15:41.458Z,4.40
2023-01-18T08:16:41.423Z,3.90
2023-01-18T08:17:41.406Z,4.20
2023-01-18T08:18:41.417Z,3.70
2023-01-18T08:19:41.372Z,4.00
2023-01-18T08:20:41.379Z,4.30
2023-01-18T08:21:41.381Z,3.50
2023-01-18T08:22:41.366Z,4.10
2023-01-18T08:23:41.360Z,4.30
2023-01-18T08:24:41.346Z,4.00
2023-01-18T08:25:41.318Z,4.10
2023-01-18T08:26:41.321Z,4.60
2023-01-18T08:27:41.427Z,4.10
2023-01-18T08:28:41.374Z,4.30
2023-01-18T08:29:41.273Z,4.00
2023-01-18T08:30:41.293Z,4.00
2023-01-18T08:31:41.272Z,3.60
2023-01-18T08:32:41.256Z,3.90
2023-01-18T08:33:41.238Z,4.10
2023-01-18T08:34:41.276Z,3.80
2023-01-18T08:35:41.215Z,4.30
2023-01-18T08:36:41.220Z,4.10
2023-01-18T08:37:41.229Z,4.50
2023-01-18T08:38:41.197Z,4.10
2023-01-18T08:39:41.217Z,4.40
2023-01-18T08:40:41.187Z,4.10
2023-01-18T08:41:41.182Z,4.10
2023-01-18T08:42:41.158Z,3.70
2023-01-18T08:43:41.132Z,4.00
2023-01-18T08:44:41.134Z,4.20
2023-01-18T08:45:41.108Z,4.20
2023-01-18T08:46:41.130Z,4.00
2023-01-18T08:47:41.105Z,4.00
2023-01-18T08:48:41.147Z,3.90
2023-01-18T08:49:41.091Z,3.50
2023-01-18T08:50:41.184Z,4.40
2023-01-18T08:51:41.082Z,4.20
2023-01-18T08:52:41.125Z,3.40
2023-01-18T08:53:41.103Z,3.90
2023-01-18T08:54:41.081Z,4.10
2023-01-18T08:55:41.007Z,3.60
2023-01-18T08:56:41.075Z,3.90
2023-01-18T08:57:41.009Z,4.00
2023-01-18T08:58:41.017Z,3.90
2023-01-18T08:59:40.965Z,3.60
2023-01-18T09:00:40.980Z,3.90
2023-01-18T09:01:40.973Z,3.70
2023-01-18T09:02:41.046Z,3.50
2023-01-18T09:03:40.944Z,4.20
2023-01-18T09:04:40.942Z,3.80
2023-01-18T09:05:40.916Z,3.70
2023-01-18T09:06:40.934Z,3.40
2023-01-18T09:07:40.883Z,3.90
2023-01-18T09:08:40.902Z,3.60
2023-01-18T09:09:40.860Z,3.90
2023-01-18T09:10:40.892Z,3.60
2023-01-18T09:11:40.845Z,3.40
2023-01-18T09:12:40.892Z,3.10
2023-01-18T09:13:54.477Z,3.90
2023-01-18T09:14:40.857Z,3.80
2023-01-18T09:15:40.824Z,3.70
2023-01-18T09:16:40.806Z,3.20
2023-01-18T09:17:40.841Z,3.80
2023-01-18T09:18:40.840Z,3.30
2023-01-18T09:19:40.769Z,3.50
2023-01-18T09:20:40.778Z,3.90
2023-01-18T09:21:40.753Z,4.10
2023-01-18T09:22:40.801Z,3.90
2023-01-18T09:23:40.745Z,3.90
2023-01-18T09:24:40.734Z,3.70
2023-01-18T09:25:40.700Z,4.10
2023-01-18T09:26:40.708Z,3.90
2023-01-18T09:27:40.693Z,3.30
2023-01-18T09:28:40.745Z,3.10
2023-01-18T09:29:40.679Z,3.50
2023-01-18T09:30:40.688Z,3.70
2023-01-18T09:31:40.654Z,3.50
2023-01-18T09:32:42.422Z,2.90
2023-01-18T09:33:43.983Z,3.30
2023-01-18T09:34:40.673Z,3.90
2023-01-18T09:35:40.596Z,3.60
2023-01-18T09:36:40.629Z,3.30
2023-01-18T09:37:40.574Z,3.50
2023-01-18T09:38:40.589Z,3.80
2023-01-18T09:39:51.373Z,3.10
2023-01-18T09:40:40.570Z,3.50
2023-01-18T09:41:40.557Z,3.70
2023-01-18T09:42:40.551Z,4.20
2023-01-18T09:43:47.011Z,3.60
2023-01-18T09:44:40.550Z,3.50
2023-01-18T09:45:40.494Z,3.50
2023-01-18T09:46:40.611Z,4.00
2023-01-18T09:47:40.493Z,3.40
2023-01-18T09:48:40.493Z,3.90
2023-01-18T09:49:40.479Z,3.60
2023-01-18T09:50:40.479Z,4.20
2023-01-18T09:51:40.453Z,3.30
2023-01-18T09:52:40.479Z,3.60
2023-01-18T09:53:40.416Z,3.60
2023-01-18T09:54:40.464Z,3.40
2023-01-18T09:55:40.414Z,3.50
2023-01-18T09:56:40.418Z,3.40
2023-01-18T09:57:40.421Z,3.40
2023-01-18T09:58:40.380Z,3.30
2023-01-18T09:59:40.362Z,3.30
2023-01-18T10:00:40.417Z,3.60
2023-01-18T10:01:40.507Z,3.60
2023-01-18T10:02:40.413Z,3.50
2023-01-18T10:03:40.330Z,3.60
2023-01-18T10:04:40.329Z,4.10
2023-01-18T10:05:40.305Z,4.20
2023-01-18T10:06:40.318Z,3.30
2023-01-18T10:07:40.278Z,3.60
2023-01-18T10:08:40.276Z,3.40
2023-01-18T10:09:40.260Z,3.90
2023-01-18T10:10:40.322Z,3.60
2023-01-18T10:11:40.239Z,3.40
2023-01-18T10:12:40.802Z,3.20
2023-01-18T10:13:40.207Z,3.00
2023-01-18T10:14:40.223Z,3.20
2023-01-18T10:15:40.187Z,3.40
2023-01-18T10:16:40.292Z,3.20
2023-01-18T10:17:40.165Z,3.10
2023-01-18T10:18:40.201Z,2.80
2023-01-18T10:19:40.147Z,3.80
2023-01-18T10:20:40.158Z,3.00
2023-01-18T10:21:40.249Z,3.30
2023-01-18T10:22:40.142Z,3.70
2023-01-18T10:23:40.108Z,3.50
2023-01-18T10:24:40.101Z,3.00
2023-01-18T10:25:40.106Z,3.30
2023-01-18T10:26:40.068Z,3.30
2023-01-18T10:27:40.084Z,3.00
2023-01-18T10:28:40.054Z,2.80
2023-01-18T10:29:40.064Z,3.50
2023-01-18T10:30:40.040Z,3.20
2023-01-18T10:31:40.119Z,2.80
2023-01-18T10:32:40.019Z,2.90
2023-01-18T10:33:40.052Z,3.00
2023-01-18T10:34:39.983Z,2.60
2023-01-18T10:35:40.206Z,2.90
2023-01-18T10:36:39.972Z,3.20
2023-01-18T10:37:39.971Z,2.80
2023-01-18T10:38:39.952Z,3.10
2023-01-18T10:39:39.996Z,3.00
2023-01-18T10:40:39.969Z,3.20
2023-01-18T10:41:39.972Z,3.50
2023-01-18T10:42:39.912Z,3.10
2023-01-18T10:43:39.932Z,2.70
2023-01-18T10:44:39.882Z,2.90
2023-01-18T10:45:39.949Z,3.40
2023-01-18T10:46:39.866Z,3.20
2023-01-18T10:47:39.888Z,3.20
2023-01-18T10:48:39.841Z,4.10
2023-01-18T10:49:39.867Z,2.90
2023-01-18T10:50:39.918Z,3.30
2023-01-18T10:51:39.843Z,3.00
2023-01-18T10:52:39.807Z,2.80
2023-01-18T10:53:39.953Z,2.90
2023-01-18T10:54:39.782Z,2.80
2023-01-18T10:55:39.786Z,3.00
2023-01-18T10:56:39.763Z,3.30
2023-01-18T10:57:39.776Z,3.20
2023-01-18T10:58:39.752Z,3.30
2023-01-18T10:59:39.817Z,3.20
2023-01-18T11:00:39.848Z,2.80
2023-01-18T11:01:39.840Z,2.80
2023-01-18T11:02:39.814Z,2.90
2023-01-18T11:03:39.732Z,3.40
2023-01-18T11:04:39.708Z,3.10
2023-01-18T11:05:39.709Z,2.80
2023-01-18T11:06:39.661Z,3.50
2023-01-18T11:07:39.675Z,3.20
2023-01-18T11:08:39.642Z,3.10
2023-01-18T11:09:39.683Z,2.90
2023-01-18T11:10:39.698Z,3.00
2023-01-18T11:11:39.639Z,3.00
2023-01-18T11:12:39.600Z,2.50
2023-01-18T11:13:39.617Z,2.80
2023-01-18T11:14:39.600Z,2.60
2023-01-18T11:15:39.610Z,2.60
2023-01-18T11:16:39.609Z,3.10
2023-01-18T11:17:39.580Z,2.70
2023-01-18T11:18:39.541Z,2.80
2023-01-18T11:19:39.553Z,3.00
2023-01-18T11:20:39.536Z,2.60
2023-01-18T11:21:39.527Z,2.40
2023-01-18T11:22:39.500Z,2.60
2023-01-18T11:23:39.556Z,2.80
2023-01-18T11:24:39.499Z,2.70
2023-01-18T11:25:39.496Z,2.60
2023-01-18T11:26:39.487Z,2.50
2023-01-18T11:27:39.480Z,2.20
2023-01-18T11:28:39.431Z,2.60
2023-01-18T11:29:39.506Z,2.20
2023-01-18T11:30:39.428Z,2.20
2023-01-18T11:31:39.457Z,2.00
2023-01-18T11:32:39.392Z,2.50
2023-01-18T11:33:40.053Z,2.10
2023-01-18T11:34:39.381Z,2.30
2023-01-18T11:35:39.402Z,2.10
2023-01-18T11:36:39.379Z,2.20
2023-01-18T11:37:39.355Z,2.00
2023-01-18T11:38:39.329Z,2.40
2023-01-18T11:39:39.359Z,1.90
2023-01-18T11:40:39.329Z,1.80
2023-01-18T11:41:39.336Z,2.10
2023-01-18T11:42:39.329Z,2.20
2023-01-18T11:43:39.512Z,2.20
2023-01-18T11:44:39.266Z,2.30
2023-01-18T11:45:39.355Z,1.90
2023-01-18T11:46:39.286Z,2.00
2023-01-18T11:47:39.286Z,2.40
2023-01-18T11:48:39.249Z,2.40
2023-01-18T11:49:39.248Z,1.90
2023-01-18T11:50:39.242Z,1.90
2023-01-18T11:51:39.234Z,2.10
2023-01-18T11:52:39.215Z,1.90
2023-01-18T11:53:39.208Z,2.00
2023-01-18T11:54:39.179Z,1.90
2023-01-18T11:55:39.188Z,1.90
2023-01-18T11:56:39.161Z,1.90
2023-01-18T11:57:39.279Z,2.50
2023-01-18T11:58:39.130Z,2.00
2023-01-18T11:59:39.135Z,2.20
2023-01-18T12:00:39.122Z,2.00
2023-01-18T12:01:39.122Z,2.50
2023-01-18T12:02:39.112Z,1.70
2023-01-18T12:03:39.286Z,1.90
2023-01-18T12:04:39.104Z,2.00
2023-01-18T12:05:39.091Z,2.10
2023-01-18T12:06:39.074Z,2.60
2023-01-18T12:07:39.084Z,2.70
2023-01-18T12:08:39.031Z,2.50
2023-01-18T12:09:39.042Z,2.40
2023-01-18T12:10:39.024Z,1.90
2023-01-18T12:11:39.031Z,2.90
2023-01-18T12:12:39.011Z,2.10
2023-01-18T12:13:39.006Z,2.20
2023-01-18T12:14:38.990Z,2.30
2023-01-18T12:15:38.990Z,2.00
2023-01-18T12:16:38.954Z,2.40
2023-01-18T12:17:38.961Z,2.30
2023-01-18T12:18:38.972Z,2.70
2023-01-18T12:19:38.960Z,2.50
2023-01-18T12:20:38.950Z,2.20
2023-01-18T12:21:38.928Z,2.50
2023-01-18T12:22:38.932Z,2.20
2023-01-18T12:23:40.405Z,2.20
2023-01-18T12:24:38.896Z,2.50
2023-01-18T12:25:38.887Z,2.00
2023-01-18T12:26:38.860Z,2.80
2023-01-18T12:27:38.875Z,2.20
2023-01-18T12:28:38.847Z,2.70
2023-01-18T12:29:38.844Z,2.20
2023-01-18T12:30:38.878Z,2.30
2023-01-18T12:31:38.839Z,2.70
2023-01-18T12:32:38.806Z,2.10
2023-01-18T12:33:43.691Z,2.40
2023-01-18T12:34:38.786Z,2.10
2023-01-18T12:35:38.793Z,2.60
2023-01-18T12:36:38.796Z,2.20
2023-01-18T12:37:38.781Z,2.40
2023-01-18T12:38:38.736Z,2.90
2023-01-18T12:39:38.761Z,2.90
2023-01-18T12:40:38.715Z,2.40
2023-01-18T12:41:38.788Z,2.80
2023-01-18T12:42:38.703Z,2.20
2023-01-18T12:43:38.740Z,2.60
2023-01-18T12:44:38.694Z,2.80
2023-01-18T12:45:38.693Z,2.40
2023-01-18T12:46:38.665Z,2.80
2023-01-18T12:47:38.657Z,2.90
2023-01-18T12:48:38.639Z,2.50
2023-01-18T12:49:38.648Z,2.70
2023-01-18T12:50:38.634Z,2.90
2023-01-18T12:51:38.643Z,2.70
2023-01-18T12:52:38.596Z,3.30
2023-01-18T12:53:38.578Z,3.10
2023-01-18T12:54:38.579Z,3.10
2023-01-18T12:55:38.580Z,2.80
2023-01-18T12:56:38.564Z,3.00
2023-01-18T12:57:38.562Z,2.90
2023-01-18T12:58:38.534Z,3.60
2023-01-18T12:59:38.551Z,3.10
2023-01-18T13:00:38.521Z,3.00
2023-01-18T13:01:38.622Z,3.30
2023-01-18T13:02:38.502Z,2.90
2023-01-18T13:03:38.500Z,3.60
2023-01-18T13:04:38.482Z,2.80
2023-01-18T13:05:38.477Z,3.20
2023-01-18T13:06:38.461Z,3.00
2023-01-18T13:07:38.478Z,3.40
2023-01-18T13:08:38.435Z,3.30
2023-01-18T13:09:38.450Z,3.20
2023-01-18T13:10:38.454Z,3.50
2023-01-18T13:11:38.452Z,3.30
2023-01-18T13:12:38.392Z,3.00
2023-01-18T13:13:38.462Z,3.40
2023-01-18T13:14:38.375Z,3.50
2023-01-18T13:15:38.791Z,3.50
2023-01-18T13:16:38.364Z,3.40
2023-01-18T13:17:38.384Z,3.20
2023-01-18T13:18:38.354Z,3.20